Airfield :







YOU CAN JOIN US ON...

 
LOGIN :

Register | Disclaimer

   EN    FR    IT 

 









Legend :    VFR   Marginal VFR   IFR   Intensive IFR   Very Intensive IFR
Visi :
Ceiling :
>= 8 km
>= 3000ft
5 to 8 km
1000 to 3000 ft
1500m to 5 km
500 to 1000 ft
800 to 1500m
200 to 500 ft
< 800m
< 200 ft
Symbols :   Thunderstorms  Fog  Heavy snow  Heavy precipitations  Wind > 20 kt






- Airport Elevation : 276 ft
- IATA code : BVB


SBBV - Boa Vista Int.

CURRENT METAR :
  • 090100Z 20007KT 9999 FEW040 BKN100 28/24 Q1011

EXPIRED METARs :
  • 090000Z 19007KT 9999 FEW040 BKN100 28/24 Q1010
  • 082300Z 19007KT 9999 FEW040 BKN100 29/24 Q1009

TAF TAF SBBV
Valid from the 09 at 00:00 until the 10 at 00:00 UTC


082100Z 0900/0924 14007KT 9999 FEW030 TN26/0906Z TX34/0917Z
BECMG 0903/0905 11008KT BKN020
PROB40
TEMPO 0908/0912 5000 TSRA BKN020 FEW035CB
BECMG 0912/0914 SCT035 FEW045TCU
BECMG 0920/0922 12008KT SCT040 RMK PEG



MET'MAP, your aeronautical weather chart ! - Copyright ORBIFLY December 2007 - Disclaimer

ORBIFLY MET'MAP TEAM :

Programming & Development : Alexandra Zaïnal
Concept & original design : Baudouin d'Aumeries
Assistance for programming : Marc-Olivier Méhu
Technical & hardware support : Manuel Goepfert

Contact : metmap@orbifly.com




SOURCES & CREDITS :

   NOAA